METAR Data
IDs: Format: Raw Decoded Include TAF

Data at: 0500 UTC 26 May 2022

KOXC 260451Z AUTO 00000KT 10SM CLR 09/07 A3037 RMK AO2 SLP295 T00940067 402110072
KOXC 260351Z AUTO 15003KT 10SM CLR 10/07 A3038 RMK AO2 SLP300 T01000072
KOXC 260251Z AUTO 00000KT 10SM CLR 11/07 A3038 RMK AO2 SLP301 T01060067 51007
KOXC 260151Z AUTO 19003KT 10SM CLR 12/07 A3038 RMK AO2 SLP300 T01170067
KOXC 260051Z 17008KT 10SM CLR 13/07 A3036 RMK AO2 SLP295 T01280072
KOXC 252351Z 18007KT 10SM CLR 14/07 A3036 RMK AO2 SLP293 T01390072 10211 20139 53005
KOXC 252251Z 17011KT 10SM CLR 16/09 A3035 RMK AO2 SLP289 T01610089
KOXC 252151Z 16008KT 10SM FEW045 18/09 A3035 RMK AO2 SLP288 T01830094
KOXC 252051Z 16009G15KT 10SM FEW045 20/09 A3035 RMK AO2 SLP287 T02000089 58009
KOXC 251951Z 21007KT 10SM FEW045 21/08 A3036 RMK AO2 SLP291 T02060083
KOXC 251851Z VRB04KT 10SM FEW045 20/09 A3038 RMK AO2 SLP297 T02000089
KOXC 251751Z 18008KT 10SM SCT045 19/09 A3037 RMK AO2 SLP297 T01940094 10200 20122 58014
KOXC 251651Z 11004KT 10SM SCT045 19/09 A3039 RMK AO2 SLP303 T01940094
KOXC 251551Z 00000KT 10SM CLR 18/08 A3041 RMK AO2 SLP308 T01780083
KOXC 251451Z 17005KT 10SM CLR 17/08 A3042 RMK AO2 SLP312 T01670083 51003
KOXC 251351Z 21005KT 10SM FEW070 14/08 A3042 RMK AO2 SLP311 T01440078
KOXC 251251Z 00000KT 10SM BKN070 13/07 A3042 RMK AO2 SLP312 T01280072
KOXC 251151Z COR VRB03KT 10SM BKN070 12/09 A3041 RMK AO2 SLP309 T01220089 10122 20072 53014
KOXC 251051Z 00000KT 10SM SCT070 11/08 A3038 RMK AO2 SLP300 T01060083
KOXC 250951Z 00000KT 10SM BKN070 10/08 A3037 RMK AO2 SLP296 T01000083
KOXC 250851Z AUTO 00000KT 10SM OVC070 09/08 A3036 RMK AO2 SLP294 T00940083 53005
KOXC 250751Z AUTO 00000KT 10SM BKN075 08/07 A3035 RMK AO2 SLP291 T00780072
KOXC 250651Z AUTO 00000KT 10SM CLR 07/07 A3036 RMK AO2 SLP292 T00720067
KOXC 250551Z AUTO 00000KT 10SM CLR 08/07 A3035 RMK AO2 SLP289 T00830072 10150 20083 58002
KOXC 250451Z AUTO 00000KT 10SM CLR 09/08 A3035 RMK AO2 SLP290 T00940078 401940089
KOXC 250351Z AUTO 00000KT 10SM CLR 10/07 A3035 RMK AO2 SLP291 T01000072
KOXC 250251Z AUTO 16005KT 10SM CLR 11/09 A3035 RMK AO2 SLP290 T01110089 51015
KOXC 250151Z AUTO 16006KT 10SM CLR 12/08 A3035 RMK AO2 SLP288 T01170078
KOXC 250051Z 19004KT 10SM SCT065 14/06 A3033 RMK AO2 SLP282 T01390056
KOXC 242351Z 17005KT 10SM FEW065 15/05 A3031 RMK AO2 SLP275 T01500050 10194 20150 53003
KOXC 242251Z 17006KT 10SM SCT065 16/06 A3030 RMK AO2 SLP272 T01610056
KOXC 242151Z 19006KT 10SM SCT065 17/07 A3030 RMK AO2 SLP270 T01720067
KOXC 242051Z 20006KT 10SM FEW050 18/08 A3030 RMK AO2 SLP271 T01830078 58001
KOXC 241951Z 15006KT 10SM SCT055 19/08 A3030 RMK AO2 SLP272 T01940083
KOXC 241851Z COR 15007KT 10SM BKN050 18/08 A3030 RMK AO2 SLP274 T01780083
KOXC 241751Z 14008KT 10SM SCT050 19/07 A3030 RMK AO2 SLP273 T01890072 10189 20122 58014